< < Back
Terminal Aerodrome Forecast


Current Version              Previous Versions:   1  2  3  4  5  6  7  8  9  

Terminal Aerodrome Forecast

817
FTUS42 KGSP 312333
TAFHKY
TAF
KHKY 312333Z 0100/0124 VRB02KT P6SM SCT060
      TEMPO 0109/0112 4SM BR
     FM011500 30005KT P6SM VCSH BKN050 PROB30 0119/0123 3SM -TSRA
      OVC035CB=

Latest METAR

201
SAUS70 KWBC 010500 RRN
MTRHKY
METAR KHKY 010453Z 00000KT 10SM SCT095 23/21 A2997 RMK AO2 SLP123
T02330211 403330206


USA.gov is the U.S. government's official web portal to all federal, state and local government web resources and services.